Time;durP1;ratioP1;P1;durP2;ratioP2;P2;SDS_P1;SDS_P2;PMS_P1;PMS_P2;Temp;Humidity;BMP_temperature;BMP_pressure;BME280_temperature;BME280_humidity;BME280_pressure;Samples;Min_cycle;Max_cycle;Signal;HPM_P1;HPM_P2
2022/09/07 00:04:38;;;;;;;7.15;5.80;;;;;;;;;;10375762;28;20289;-76
2022/09/07 00:09:40;;;;;;;8.13;6.47;;;;;;;;;;10358315;28;20128;-79
2022/09/07 00:14:40;;;;;;;7.07;6.03;;;;;;;;;;10374205;28;20125;-77
2022/09/07 00:19:41;;;;;;;7.07;6.35;;;;;;;;;;10356845;28;20370;-76
2022/09/07 00:24:41;;;;;;;7.05;6.13;;;;;;;;;;10355344;28;20588;-77
2022/09/07 00:29:44;;;;;;;7.38;5.90;;;;;;;;;;10357258;28;20034;-79
2022/09/07 00:34:45;;;;;;;6.20;5.53;;;;;;;;;;10360769;28;20134;-78
2022/09/07 00:39:45;;;;;;;6.25;5.65;;;;;;;;;;10351862;28;20304;-78
2022/09/07 00:44:56;;;;;;;6.38;5.60;;;;;;;;;;10355486;28;20417;-79
2022/09/07 00:50:00;;;;;;;6.32;5.75;;;;;;;;;;10347756;28;20045;-82
2022/09/07 00:55:02;;;;;;;7.03;6.32;;;;;;;;;;10344888;28;20508;-78
2022/09/07 01:00:04;;;;;;;6.78;6.15;;;;;;;;;;10361654;28;20037;-78
2022/09/07 01:05:08;;;;;;;8.02;6.70;;;;;;;;;;10365942;28;20046;-77
2022/09/07 01:10:11;;;;;;;8.52;7.00;;;;;;;;;;10370289;28;20038;-78
2022/09/07 01:15:12;;;;;;;7.22;6.53;;;;;;;;;;10358183;28;20049;-80
2022/09/07 01:20:31;;;;;;;7.50;6.78;;;;;;;;;;10354388;28;20129;-79
2022/09/07 01:25:45;;;;;;;7.90;7.05;;;;;;;;;;10350307;28;20038;-78
2022/09/07 01:30:52;;;;;;;7.15;6.45;;;;;;;;;;10340837;28;20698;-78
2022/09/07 01:36:00;;;;;;;6.93;6.22;;;;;;;;;;10350342;28;20054;-78
2022/09/07 01:41:08;;;;;;;9.18;7.25;;;;;;;;;;10352519;28;20037;-78
2022/09/07 01:46:31;;;;;;;7.40;6.70;;;;;;;;;;10353728;28;20038;-79
2022/09/07 01:51:33;;;;;;;7.70;6.90;;;;;;;;;;10359155;28;20102;-80
2022/09/07 01:56:36;;;;;;;9.15;7.13;;;;;;;;;;10360336;28;20473;-77
2022/09/07 02:01:46;;;;;;;7.47;6.78;;;;;;;;;;10350709;28;20038;-79
2022/09/07 02:06:54;;;;;;;8.82;7.60;;;;;;;;;;10345390;28;20138;-79
2022/09/07 02:11:56;;;;;;;7.90;6.95;;;;;;;;;;10344498;28;20477;-80
2022/09/07 02:17:00;;;;;;;7.80;7.10;;;;;;;;;;10344411;28;20042;-77
2022/09/07 02:22:04;;;;;;;9.38;7.25;;;;;;;;;;10345495;28;20030;-79
2022/09/07 02:27:10;;;;;;;8.57;7.78;;;;;;;;;;10356816;28;20379;-79
2022/09/07 02:32:11;;;;;;;7.40;6.70;;;;;;;;;;10357100;28;20060;-80
2022/09/07 02:37:13;;;;;;;10.95;8.15;;;;;;;;;;10397844;28;20026;-79
2022/09/07 02:42:14;;;;;;;8.93;7.60;;;;;;;;;;10395839;28;20034;-79
2022/09/07 02:47:22;;;;;;;8.95;8.00;;;;;;;;;;10378559;28;20053;-79
2022/09/07 02:52:23;;;;;;;9.63;7.20;;;;;;;;;;10369781;28;20050;-78
2022/09/07 02:57:48;;;;;;;7.50;6.70;;;;;;;;;;10341431;28;20054;-79
2022/09/07 03:03:04;;;;;;;9.90;8.20;;;;;;;;;;10368215;28;20393;-78
2022/09/07 03:08:07;;;;;;;9.98;7.68;;;;;;;;;;10343034;28;20049;-79
2022/09/07 03:13:17;;;;;;;8.13;7.28;;;;;;;;;;10352912;28;20038;-79
2022/09/07 03:18:18;;;;;;;8.82;7.93;;;;;;;;;;10353200;28;20033;-79
2022/09/07 03:23:20;;;;;;;8.90;7.70;;;;;;;;;;10368652;28;20029;-81
2022/09/07 03:28:23;;;;;;;12.03;8.73;;;;;;;;;;10372777;28;20062;-77
2022/09/07 03:33:24;;;;;;;9.02;8.10;;;;;;;;;;10360572;28;20046;-78
2022/09/07 03:38:24;;;;;;;11.55;8.50;;;;;;;;;;10364274;28;20056;-79
2022/09/07 03:43:25;;;;;;;10.73;8.95;;;;;;;;;;10352949;28;20030;-80
2022/09/07 03:48:30;;;;;;;10.55;8.05;;;;;;;;;;10355095;28;20077;-80
2022/09/07 03:53:36;;;;;;;8.52;7.63;;;;;;;;;;10351182;28;20045;-80
2022/09/07 03:58:38;;;;;;;9.40;8.35;;;;;;;;;;10365171;28;20038;-81
2022/09/07 04:03:39;;;;;;;12.15;8.50;;;;;;;;;;10356876;28;20038;-78
2022/09/07 04:08:39;;;;;;;10.30;8.63;;;;;;;;;;10345826;28;20042;-78
2022/09/07 04:13:40;;;;;;;11.07;8.88;;;;;;;;;;10357087;28;20108;-79
2022/09/07 04:18:40;;;;;;;9.45;8.55;;;;;;;;;;10357006;28;20038;-78
2022/09/07 04:23:42;;;;;;;8.40;7.47;;;;;;;;;;10361054;28;20034;-80
2022/09/07 04:28:43;;;;;;;8.82;7.95;;;;;;;;;;10361030;28;20184;-78
2022/09/07 04:33:44;;;;;;;9.48;8.50;;;;;;;;;;10354062;28;20053;-76
2022/09/07 04:38:46;;;;;;;8.98;7.63;;;;;;;;;;10361782;28;20497;-78
2022/09/07 04:43:50;;;;;;;9.47;8.47;;;;;;;;;;10393352;28;20042;-78
2022/09/07 04:48:52;;;;;;;9.45;8.25;;;;;;;;;;10383828;28;20040;-78
2022/09/07 04:53:55;;;;;;;10.60;9.43;;;;;;;;;;10374059;28;20685;-76
2022/09/07 04:58:56;;;;;;;9.10;7.95;;;;;;;;;;10350250;28;20061;-77
2022/09/07 05:03:58;;;;;;;9.65;8.55;;;;;;;;;;10344020;28;20046;-78
2022/09/07 05:08:59;;;;;;;10.43;9.32;;;;;;;;;;10355393;28;20045;-77
2022/09/07 05:14:00;;;;;;;11.02;9.45;;;;;;;;;;10341493;28;20050;-78
2022/09/07 05:19:02;;;;;;;9.80;8.85;;;;;;;;;;10352739;28;20390;-77
2022/09/07 05:24:03;;;;;;;11.32;8.35;;;;;;;;;;10349880;28;20084;-76
2022/09/07 05:29:05;;;;;;;9.20;8.30;;;;;;;;;;10366419;28;20141;-77
2022/09/07 05:34:05;;;;;;;11.23;8.48;;;;;;;;;;10367628;28;20069;-79
2022/09/07 05:39:06;;;;;;;14.03;9.60;;;;;;;;;;10378706;28;20033;-78
2022/09/07 05:44:07;;;;;;;12.18;9.35;;;;;;;;;;10355277;28;20360;-75
2022/09/07 05:49:07;;;;;;;10.07;8.32;;;;;;;;;;10343736;28;20037;-76
2022/09/07 05:54:09;;;;;;;10.90;8.45;;;;;;;;;;10345485;28;20132;-76
2022/09/07 05:59:09;;;;;;;10.00;8.97;;;;;;;;;;10340806;28;20441;-76
2022/09/07 06:04:10;;;;;;;17.33;9.60;;;;;;;;;;10344158;28;20096;-76
2022/09/07 06:09:11;;;;;;;8.63;7.67;;;;;;;;;;10332618;28;20532;-74
2022/09/07 06:14:11;;;;;;;10.45;8.93;;;;;;;;;;10353222;28;20305;-75
2022/09/07 06:19:12;;;;;;;12.68;9.68;;;;;;;;;;10355984;28;20052;-75
2022/09/07 06:24:12;;;;;;;10.57;9.27;;;;;;;;;;10358843;28;20867;-76
2022/09/07 06:29:13;;;;;;;11.67;9.23;;;;;;;;;;10349007;28;20525;-76
2022/09/07 06:34:13;;;;;;;13.80;9.73;;;;;;;;;;10338110;28;20337;-74
2022/09/07 06:39:14;;;;;;;13.10;10.15;;;;;;;;;;10350792;28;20030;-74
2022/09/07 06:44:14;;;;;;;13.13;10.53;;;;;;;;;;10342774;28;20046;-75
2022/09/07 06:49:14;;;;;;;13.10;11.43;;;;;;;;;;10344454;28;20410;-75
2022/09/07 06:54:15;;;;;;;16.42;11.25;;;;;;;;;;10343945;28;20788;-74
2022/09/07 06:59:15;;;;;;;15.07;12.43;;;;;;;;;;10356469;28;20153;-74
2022/09/07 07:04:15;;;;;;;14.00;11.57;;;;;;;;;;10352822;28;20096;-74
2022/09/07 07:09:16;;;;;;;13.70;11.50;;;;;;;;;;10334147;28;20112;-74
2022/09/07 07:14:16;;;;;;;17.80;11.75;;;;;;;;;;10343613;28;20316;-75
2022/09/07 07:19:17;;;;;;;16.77;12.07;;;;;;;;;;10341969;28;20386;-76
2022/09/07 07:24:17;;;;;;;14.40;12.23;;;;;;;;;;10343823;28;20034;-75
2022/09/07 07:29:17;;;;;;;13.30;10.43;;;;;;;;;;10347882;28;21125;-75
2022/09/07 07:34:18;;;;;;;15.50;10.90;;;;;;;;;;10346047;28;20728;-75
2022/09/07 07:39:46;;;;;;;15.55;11.35;;;;;;;;;;10344765;28;20703;-75
2022/09/07 07:44:48;;;;;;;12.50;10.13;;;;;;;;;;10358844;28;20060;-75
2022/09/07 07:49:48;;;;;;;13.80;10.45;;;;;;;;;;10354862;28;20121;-75
2022/09/07 07:54:48;;;;;;;14.98;10.52;;;;;;;;;;10343611;28;20121;-74
2022/09/07 07:59:49;;;;;;;14.10;10.30;;;;;;;;;;10360625;28;20042;-76
2022/09/07 08:04:49;;;;;;;14.00;9.38;;;;;;;;;;10342109;28;20293;-76
2022/09/07 08:09:50;;;;;;;11.70;8.27;;;;;;;;;;10343805;28;20038;-74
2022/09/07 08:14:52;;;;;;;9.40;7.07;;;;;;;;;;10349179;28;20053;-76
2022/09/07 08:19:54;;;;;;;8.40;6.05;;;;;;;;;;10354652;28;20036;-75
2022/09/07 08:24:55;;;;;;;6.90;6.20;;;;;;;;;;10362014;28;20049;-75
2022/09/07 08:29:55;;;;;;;6.67;5.30;;;;;;;;;;10358509;28;20288;-75
2022/09/07 08:34:57;;;;;;;7.17;5.17;;;;;;;;;;10353335;28;20042;-75
2022/09/07 08:39:58;;;;;;;7.00;5.40;;;;;;;;;;10344490;28;20348;-76
2022/09/07 08:44:58;;;;;;;9.63;5.70;;;;;;;;;;10366883;28;20042;-75
2022/09/07 08:50:01;;;;;;;7.03;4.97;;;;;;;;;;10355583;28;20782;-76
2022/09/07 08:55:09;;;;;;;7.68;4.75;;;;;;;;;;10338870;28;20061;-76
2022/09/07 09:00:11;;;;;;;6.72;4.50;;;;;;;;;;10345215;28;20058;-74
2022/09/07 09:05:27;;;;;;;7.80;4.60;;;;;;;;;;10345662;28;20042;-75
2022/09/07 09:10:37;;;;;;;7.85;4.07;;;;;;;;;;10353360;28;20701;-75
2022/09/07 09:15:56;;;;;;;7.78;4.00;;;;;;;;;;10349055;28;20133;-75
2022/09/07 09:20:58;;;;;;;4.88;2.97;;;;;;;;;;10353481;28;20226;-78
2022/09/07 09:26:01;;;;;;;5.38;4.22;;;;;;;;;;10353164;28;20049;-75
2022/09/07 09:31:02;;;;;;;5.50;3.35;;;;;;;;;;10344455;28;20042;-75
2022/09/07 09:36:21;;;;;;;3.77;3.00;;;;;;;;;;10351336;28;20041;-75
2022/09/07 09:41:22;;;;;;;4.38;2.85;;;;;;;;;;10350985;28;20042;-74
2022/09/07 09:46:27;;;;;;;4.57;2.55;;;;;;;;;;10353298;28;20090;-76
2022/09/07 09:51:30;;;;;;;7.30;3.28;;;;;;;;;;10338955;28;20053;-76
2022/09/07 09:56:41;;;;;;;5.50;3.15;;;;;;;;;;10339845;28;20054;-77
2022/09/07 10:01:41;;;;;;;3.67;2.90;;;;;;;;;;10350619;28;20034;-78
2022/09/07 10:06:50;;;;;;;3.95;2.85;;;;;;;;;;10337430;28;20049;-74
2022/09/07 10:12:01;;;;;;;6.13;2.88;;;;;;;;;;10338065;28;20042;-75
2022/09/07 10:17:09;;;;;;;3.75;2.50;;;;;;;;;;10338993;28;20041;-76
2022/09/07 10:22:28;;;;;;;4.00;2.20;;;;;;;;;;10338033;28;20034;-74
2022/09/07 10:27:33;;;;;;;4.63;2.58;;;;;;;;;;10336386;28;20050;-77
2022/09/07 10:32:40;;;;;;;5.20;2.17;;;;;;;;;;10350376;28;20157;-75
2022/09/07 10:38:00;;;;;;;4.88;2.58;;;;;;;;;;10338324;28;20041;-77
2022/09/07 10:43:16;;;;;;;3.70;2.50;;;;;;;;;;10349196;28;20106;-76
2022/09/07 10:48:21;;;;;;;3.30;2.65;;;;;;;;;;10349416;28;20073;-75
2022/09/07 10:53:41;;;;;;;3.58;2.40;;;;;;;;;;10351661;28;20038;-76
2022/09/07 10:58:47;;;;;;;9.48;6.10;;;;;;;;;;10342804;28;20088;-76
2022/09/07 11:03:56;;;;;;;4.32;2.50;;;;;;;;;;10351369;28;20041;-77
2022/09/07 11:09:06;;;;;;;4.20;2.17;;;;;;;;;;10349122;28;20077;-78
2022/09/07 11:14:15;;;;;;;6.28;2.92;;;;;;;;;;10345575;28;20133;-76
2022/09/07 11:19:18;;;;;;;6.95;3.15;;;;;;;;;;10342538;28;20045;-76
2022/09/07 11:24:25;;;;;;;3.78;2.63;;;;;;;;;;10351662;28;20042;-76
2022/09/07 11:29:28;;;;;;;5.18;2.13;;;;;;;;;;10348029;28;20057;-76
2022/09/07 11:34:32;;;;;;;3.47;2.38;;;;;;;;;;10345919;28;20054;-78
2022/09/07 11:39:38;;;;;;;3.15;2.20;;;;;;;;;;10350620;28;20030;-76
2022/09/07 11:44:51;;;;;;;3.47;2.42;;;;;;;;;;10344741;28;20093;-76
2022/09/07 11:49:54;;;;;;;3.72;2.30;;;;;;;;;;10340352;28;20045;-77
2022/09/07 11:54:56;;;;;;;6.82;2.70;;;;;;;;;;10342341;28;20114;-77
2022/09/07 12:00:09;;;;;;;5.95;2.30;;;;;;;;;;10347189;28;20175;-76
2022/09/07 12:05:10;;;;;;;5.43;2.17;;;;;;;;;;10355898;28;20042;-76
2022/09/07 12:10:46;;;;;;;5.33;2.43;;;;;;;;;;10344513;28;20077;-77
2022/09/07 12:16:00;;;;;;;4.43;2.70;;;;;;;;;;10277314;28;20076;-76
2022/09/07 12:21:00;;;;;;;5.18;2.30;;;;;;;;;;10342770;28;20094;-77
2022/09/07 12:26:20;;;;;;;3.93;2.00;;;;;;;;;;10324502;28;20116;-78
2022/09/07 12:31:39;;;;;;;6.75;2.20;;;;;;;;;;10336397;28;20124;-77
2022/09/07 12:36:48;;;;;;;4.13;2.95;;;;;;;;;;10354923;28;20093;-77
2022/09/07 12:41:50;;;;;;;8.93;2.83;;;;;;;;;;10342639;28;20034;-77
2022/09/07 12:46:51;;;;;;;3.90;2.30;;;;;;;;;;10353801;28;20136;-76
2022/09/07 12:51:59;;;;;;;7.50;2.65;;;;;;;;;;10347401;28;20035;-76
2022/09/07 12:57:20;;;;;;;4.22;2.30;;;;;;;;;;10347245;28;20038;-79
2022/09/07 13:02:47;;;;;;;7.07;2.20;;;;;;;;;;10344031;28;20413;-78
2022/09/07 13:08:06;;;;;;;4.07;2.35;;;;;;;;;;10347201;28;20062;-75
2022/09/07 13:13:26;;;;;;;3.58;2.53;;;;;;;;;;10359921;28;20038;-76
2022/09/07 13:18:27;;;;;;;6.53;2.33;;;;;;;;;;10360290;28;20175;-77
2022/09/07 13:23:27;;;;;;;3.93;2.33;;;;;;;;;;10363021;28;20488;-78
2022/09/07 13:28:28;;;;;;;5.23;2.30;;;;;;;;;;10361460;28;20033;-78
2022/09/07 13:33:28;;;;;;;4.43;2.43;;;;;;;;;;10361835;28;20026;-78
2022/09/07 13:38:29;;;;;;;6.70;3.90;;;;;;;;;;10367414;28;20520;-79
2022/09/07 13:43:29;;;;;;;3.37;2.20;;;;;;;;;;10366380;28;20034;-77
2022/09/07 13:48:34;;;;;;;2.67;2.20;;;;;;;;;;10367522;28;20371;-76
2022/09/07 13:53:44;;;;;;;6.95;2.40;;;;;;;;;;10363091;28;20062;-76
2022/09/07 13:58:50;;;;;;;4.35;2.53;;;;;;;;;;10357053;28;20041;-76
2022/09/07 14:03:53;;;;;;;6.07;2.33;;;;;;;;;;10362750;28;20033;-76
2022/09/07 14:08:54;;;;;;;4.72;2.20;;;;;;;;;;10356315;28;20073;-76
2022/09/07 14:14:10;;;;;;;5.32;2.30;;;;;;;;;;10356027;28;20038;-76
2022/09/07 14:19:12;;;;;;;4.05;2.50;;;;;;;;;;10354906;28;20470;-76
2022/09/07 14:24:39;;;;;;;5.65;2.47;;;;;;;;;;10354611;28;20501;-74
2022/09/07 14:29:39;;;;;;;4.90;2.42;;;;;;;;;;10355683;28;20049;-76
2022/09/07 14:34:40;;;;;;;2.10;2.00;;;;;;;;;;10350528;28;20050;-76
2022/09/07 14:39:42;;;;;;;4.38;2.30;;;;;;;;;;10347993;28;20046;-76
2022/09/07 14:44:43;;;;;;;3.65;1.80;;;;;;;;;;10337077;28;20033;-76
2022/09/07 14:49:48;;;;;;;3.83;2.00;;;;;;;;;;10346893;28;20042;-75
2022/09/07 14:54:51;;;;;;;3.95;1.92;;;;;;;;;;10343599;28;20043;-74
2022/09/07 14:59:52;;;;;;;4.05;1.70;;;;;;;;;;10351369;28;20065;-74
2022/09/07 15:05:14;;;;;;;3.78;1.90;;;;;;;;;;10359234;28;20117;-78
2022/09/07 15:10:20;;;;;;;3.28;1.90;;;;;;;;;;10332725;28;20137;-76
2022/09/07 15:15:23;;;;;;;3.63;1.90;;;;;;;;;;10354684;28;20164;-76
2022/09/07 15:20:37;;;;;;;4.22;1.88;;;;;;;;;;10343080;28;20486;-74
2022/09/07 15:25:38;;;;;;;2.88;1.67;;;;;;;;;;10344023;28;20048;-73
2022/09/07 15:30:38;;;;;;;;;;;;;;;;;;10337067;28;20140;-73
2022/09/07 15:35:39;;;;;;;4.30;2.10;;;;;;;;;;10346232;28;20360;-74
2022/09/07 15:40:50;;;;;;;4.70;2.27;;;;;;;;;;10341216;28;20096;-76
2022/09/07 15:45:51;;;;;;;4.40;1.90;;;;;;;;;;10353604;28;20126;-74
2022/09/07 15:51:00;;;;;;;2.50;1.75;;;;;;;;;;10352308;28;20034;-75
2022/09/07 15:56:01;;;;;;;3.47;1.80;;;;;;;;;;10335302;28;20093;-78
2022/09/07 16:01:02;;;;;;;2.73;1.77;;;;;;;;;;10329269;28;20046;-75
2022/09/07 16:06:02;;;;;;;;;;;;;;;;;;10341488;28;20030;-74
2022/09/07 16:11:20;;;;;;;2.65;1.45;;;;;;;;;;10355897;28;19929;-74
2022/09/07 16:16:20;;;;;;;9.95;7.32;;;;;;;;;;10355632;28;20054;-76
2022/09/07 16:21:21;;;;;;;9.00;6.30;;;;;;;;;;10351764;28;20038;-79
2022/09/07 16:26:23;;;;;;;3.57;1.60;;;;;;;;;;10343963;28;20351;-75
2022/09/07 16:31:24;;;;;;;2.63;1.50;;;;;;;;;;10362595;28;20121;-77
2022/09/07 16:36:26;;;;;;;2.67;1.70;;;;;;;;;;10358476;28;20054;-76
2022/09/07 16:41:26;;;;;;;;;;;;;;;;;;10354203;28;20129;-74
2022/09/07 16:46:29;;;;;;;3.15;1.67;;;;;;;;;;10354018;28;19964;-77
2022/09/07 16:51:29;;;;;;;2.85;1.88;;;;;;;;;;10345179;28;20042;-76
2022/09/07 16:56:31;;;;;;;4.10;2.00;;;;;;;;;;10353423;28;20054;-77
2022/09/07 17:01:33;;;;;;;3.05;2.03;;;;;;;;;;10350509;28;20065;-78
2022/09/07 17:06:33;;;;;;;3.13;1.77;;;;;;;;;;10358068;28;20054;-75
2022/09/07 17:11:35;;;;;;;2.67;1.90;;;;;;;;;;10354220;28;20473;-76
2022/09/07 17:16:35;;;;;;;;;;;;;;;;;;10364989;28;20042;-75
2022/09/07 17:21:37;;;;;;;3.42;2.50;;;;;;;;;;10360095;28;20309;-77
2022/09/07 17:26:39;;;;;;;3.97;2.80;;;;;;;;;;10351451;28;20050;-78
2022/09/07 17:31:40;;;;;;;3.05;2.08;;;;;;;;;;10370506;28;20029;-78
2022/09/07 17:36:41;;;;;;;3.25;2.30;;;;;;;;;;10377322;28;20102;-75
2022/09/07 17:41:41;;;;;;;2.80;2.30;;;;;;;;;;10352144;28;20412;-76
2022/09/07 17:46:42;;;;;;;3.45;2.58;;;;;;;;;;10349470;28;20042;-75
2022/09/07 17:51:45;;;;;;;3.83;2.30;;;;;;;;;;10345104;28;20482;-77
2022/09/07 17:56:46;;;;;;;8.23;5.13;;;;;;;;;;10346841;28;20054;-75
2022/09/07 18:01:46;;;;;;;4.63;3.28;;;;;;;;;;10354717;28;20045;-74
2022/09/07 18:06:47;;;;;;;4.77;3.47;;;;;;;;;;10358016;28;20438;-79
2022/09/07 18:11:47;;;;;;;5.13;3.38;;;;;;;;;;10347390;28;20458;-78
2022/09/07 18:16:48;;;;;;;6.72;3.58;;;;;;;;;;10345242;28;20042;-79
2022/09/07 18:21:49;;;;;;;6.43;3.10;;;;;;;;;;10346767;28;20044;-79
2022/09/07 18:26:50;;;;;;;5.63;3.30;;;;;;;;;;10345362;28;20034;-77
2022/09/07 18:31:50;;;;;;;5.93;2.90;;;;;;;;;;10343659;28;20529;-78
2022/09/07 18:36:51;;;;;;;3.70;2.58;;;;;;;;;;10354324;28;20388;-77
2022/09/07 18:41:52;;;;;;;3.67;2.53;;;;;;;;;;10349996;28;20346;-78
2022/09/07 18:46:53;;;;;;;9.20;3.67;;;;;;;;;;10348817;28;20029;-78
2022/09/07 18:51:53;;;;;;;7.65;4.20;;;;;;;;;;10352143;28;20545;-78
2022/09/07 18:56:53;;;;;;;6.13;3.73;;;;;;;;;;10349086;28;20069;-80
2022/09/07 19:01:54;;;;;;;7.87;4.20;;;;;;;;;;10357202;28;20316;-78
2022/09/07 19:06:54;;;;;;;9.17;4.33;;;;;;;;;;10360756;28;20058;-77
2022/09/07 19:11:54;;;;;;;8.13;5.18;;;;;;;;;;10364996;28;20407;-78
2022/09/07 19:16:56;;;;;;;7.50;4.53;;;;;;;;;;10366202;28;20062;-78
2022/09/07 19:21:57;;;;;;;5.90;4.32;;;;;;;;;;10367358;28;20048;-80
2022/09/07 19:26:57;;;;;;;12.20;6.22;;;;;;;;;;10364047;28;20094;-79
2022/09/07 19:32:04;;;;;;;12.50;7.95;;;;;;;;;;10361266;28;20038;-80
2022/09/07 19:37:06;;;;;;;10.73;7.00;;;;;;;;;;10362166;28;20537;-80
2022/09/07 19:42:06;;;;;;;14.27;6.90;;;;;;;;;;10360279;28;20074;-79
2022/09/07 19:47:07;;;;;;;9.97;5.17;;;;;;;;;;10358684;28;20062;-79
2022/09/07 19:52:08;;;;;;;8.30;5.63;;;;;;;;;;10355242;28;20633;-78
2022/09/07 19:57:08;;;;;;;8.40;5.68;;;;;;;;;;10367130;28;20508;-79
2022/09/07 20:02:09;;;;;;;7.20;5.15;;;;;;;;;;10371612;28;20046;-78
2022/09/07 20:07:10;;;;;;;6.27;5.10;;;;;;;;;;10370411;28;20068;-81
2022/09/07 20:12:12;;;;;;;6.82;5.40;;;;;;;;;;10376774;28;20309;-79
2022/09/07 20:17:12;;;;;;;5.82;4.53;;;;;;;;;;10366268;28;20037;-79
2022/09/07 20:22:14;;;;;;;7.40;5.30;;;;;;;;;;10361480;28;20049;-79
2022/09/07 20:27:14;;;;;;;7.53;5.10;;;;;;;;;;10356151;28;20042;-79
2022/09/07 20:32:16;;;;;;;7.55;5.45;;;;;;;;;;10371653;28;20038;-79
2022/09/07 20:37:16;;;;;;;7.05;5.03;;;;;;;;;;10371558;28;20046;-79
2022/09/07 20:42:16;;;;;;;7.13;5.00;;;;;;;;;;10356653;28;20131;-79
2022/09/07 20:47:17;;;;;;;4.07;3.10;;;;;;;;;;10356927;28;20340;-79
2022/09/07 20:52:18;;;;;;;7.47;4.70;;;;;;;;;;10360174;28;20309;-78
2022/09/07 20:57:18;;;;;;;6.60;4.10;;;;;;;;;;10356505;28;20185;-78
2022/09/07 21:02:18;;;;;;;7.68;4.68;;;;;;;;;;10361321;28;20045;-80
2022/09/07 21:07:19;;;;;;;9.90;4.80;;;;;;;;;;10351327;28;20449;-78
2022/09/07 21:12:19;;;;;;;4.93;4.00;;;;;;;;;;10358474;28;20034;-83
2022/09/07 21:17:19;;;;;;;5.83;4.20;;;;;;;;;;10360062;28;20121;-80
2022/09/07 21:22:20;;;;;;;4.28;3.78;;;;;;;;;;10358672;28;20049;-78
2022/09/07 21:27:20;;;;;;;4.60;3.13;;;;;;;;;;10355716;28;20050;-79
2022/09/07 21:32:21;;;;;;;3.70;3.23;;;;;;;;;;10354503;28;20280;-78
2022/09/07 21:37:24;;;;;;;4.57;3.67;;;;;;;;;;10374730;28;20348;-78
2022/09/07 21:42:24;;;;;;;4.78;3.80;;;;;;;;;;10365779;28;20542;-78
2022/09/07 21:47:26;;;;;;;4.82;3.78;;;;;;;;;;10368751;28;20062;-81
2022/09/07 21:52:27;;;;;;;5.57;3.43;;;;;;;;;;10363795;28;20186;-78
2022/09/07 21:57:28;;;;;;;4.93;3.40;;;;;;;;;;10368685;28;20125;-78
2022/09/07 22:02:29;;;;;;;5.07;3.73;;;;;;;;;;10352901;28;20096;-79
2022/09/07 22:07:45;;;;;;;5.72;3.95;;;;;;;;;;10358691;28;20042;-79
2022/09/07 22:12:45;;;;;;;5.93;4.15;;;;;;;;;;10352527;28;20046;-78
2022/09/07 22:17:50;;;;;;;6.80;3.70;;;;;;;;;;10367617;28;20034;-79
2022/09/07 22:22:52;;;;;;;5.00;3.50;;;;;;;;;;10340162;28;20295;-78
2022/09/07 22:27:53;;;;;;;4.33;3.60;;;;;;;;;;10351443;28;20034;-79
2022/09/07 22:32:53;;;;;;;4.97;3.58;;;;;;;;;;10353204;28;20316;-79
2022/09/07 22:37:54;;;;;;;4.80;3.58;;;;;;;;;;10354830;28;20040;-79
2022/09/07 22:42:56;;;;;;;5.93;3.40;;;;;;;;;;10335069;28;20042;-78
2022/09/07 22:47:59;;;;;;;5.60;3.73;;;;;;;;;;10359519;28;20038;-82
2022/09/07 22:53:00;;;;;;;4.97;3.30;;;;;;;;;;10366327;28;20052;-80
2022/09/07 22:58:01;;;;;;;4.90;3.70;;;;;;;;;;10344738;28;20046;-76
2022/09/07 23:03:02;;;;;;;5.10;3.90;;;;;;;;;;10358134;28;20095;-80
2022/09/07 23:08:03;;;;;;;4.00;3.60;;;;;;;;;;10369278;28;20045;-80
2022/09/07 23:13:03;;;;;;;4.57;3.50;;;;;;;;;;10358448;28;20050;-80
2022/09/07 23:18:04;;;;;;;3.85;3.30;;;;;;;;;;10372290;28;20121;-78
2022/09/07 23:23:05;;;;;;;5.37;3.70;;;;;;;;;;10366475;28;20038;-78
2022/09/07 23:28:06;;;;;;;5.37;4.13;;;;;;;;;;10363447;28;20441;-78
2022/09/07 23:33:07;;;;;;;5.60;3.80;;;;;;;;;;10349636;28;20046;-77
2022/09/07 23:38:07;;;;;;;4.07;3.67;;;;;;;;;;10350693;28;20040;-79
2022/09/07 23:43:08;;;;;;;4.85;4.07;;;;;;;;;;10353173;28;20433;-80
2022/09/07 23:48:08;;;;;;;4.32;3.80;;;;;;;;;;10369803;28;20095;-80
2022/09/07 23:53:10;;;;;;;7.27;3.93;;;;;;;;;;10373275;28;20038;-80
2022/09/07 23:58:11;;;;;;;4.05;3.65;;;;;;;;;;10347676;28;20359;-78
